sensor_id;sensor_type;location;lat;lon;timestamp;P1;durP1;ratioP1;P2;durP2;ratioP2
33154;SDS011;19511;42.682;23.332;2022-10-31T00:00:16;1999.90;;;999.90;;
33154;SDS011;19511;42.682;23.332;2022-10-31T00:02:42;1999.90;;;999.90;;
33154;SDS011;19511;42.682;23.332;2022-10-31T00:05:08;1999.90;;;999.90;;
33154;SDS011;19511;42.682;23.332;2022-10-31T00:07:33;1999.90;;;999.90;;
33154;SDS011;19511;42.682;23.332;2022-10-31T00:09:59;1999.90;;;999.90;;
33154;SDS011;19511;42.682;23.332;2022-10-31T00:12:25;1999.90;;;999.90;;
33154;SDS011;19511;42.682;23.332;2022-10-31T00:14:51;1999.90;;;999.90;;
33154;SDS011;19511;42.682;23.332;2022-10-31T00:17:16;1999.90;;;999.90;;
33154;SDS011;19511;42.682;23.332;2022-10-31T00:19:41;1999.90;;;999.90;;
33154;SDS011;19511;42.682;23.332;2022-10-31T00:22:07;1999.90;;;999.90;;
33154;SDS011;19511;42.682;23.332;2022-10-31T00:24:32;1999.90;;;999.90;;
33154;SDS011;19511;42.682;23.332;2022-10-31T00:26:58;1999.90;;;999.90;;
33154;SDS011;19511;42.682;23.332;2022-10-31T00:29:23;1999.90;;;999.90;;
33154;SDS011;19511;42.682;23.332;2022-10-31T00:31:49;1999.90;;;999.90;;
33154;SDS011;19511;42.682;23.332;2022-10-31T00:34:14;1999.90;;;999.90;;
33154;SDS011;19511;42.682;23.332;2022-10-31T00:36:40;1999.90;;;999.90;;
33154;SDS011;19511;42.682;23.332;2022-10-31T00:39:05;1999.90;;;999.90;;
33154;SDS011;19511;42.682;23.332;2022-10-31T00:41:31;1999.90;;;999.90;;
33154;SDS011;19511;42.682;23.332;2022-10-31T00:43:56;1999.90;;;999.90;;
33154;SDS011;19511;42.682;23.332;2022-10-31T00:46:22;1999.90;;;999.90;;
33154;SDS011;19511;42.682;23.332;2022-10-31T00:48:48;1999.90;;;999.90;;
33154;SDS011;19511;42.682;23.332;2022-10-31T00:51:13;1999.90;;;999.90;;
33154;SDS011;19511;42.682;23.332;2022-10-31T00:53:39;1999.90;;;999.90;;
33154;SDS011;19511;42.682;23.332;2022-10-31T00:56:04;1999.90;;;999.90;;
33154;SDS011;19511;42.682;23.332;2022-10-31T00:58:30;1999.90;;;999.90;;
33154;SDS011;19511;42.682;23.332;2022-10-31T01:00:55;1999.90;;;999.90;;
33154;SDS011;19511;42.682;23.332;2022-10-31T01:03:22;1999.90;;;999.90;;
33154;SDS011;19511;42.682;23.332;2022-10-31T01:08:28;1999.90;;;999.90;;
33154;SDS011;19511;42.682;23.332;2022-10-31T01:10:58;1999.90;;;999.90;;
33154;SDS011;19511;42.682;23.332;2022-10-31T01:13:24;1999.90;;;999.90;;
33154;SDS011;19511;42.682;23.332;2022-10-31T01:15:56;1999.90;;;999.90;;
33154;SDS011;19511;42.682;23.332;2022-10-31T01:18:23;1999.90;;;999.90;;
33154;SDS011;19511;42.682;23.332;2022-10-31T01:21:08;1999.90;;;999.90;;
33154;SDS011;19511;42.682;23.332;2022-10-31T01:23:35;1999.90;;;999.90;;
33154;SDS011;19511;42.682;23.332;2022-10-31T01:28:29;1999.90;;;999.90;;
33154;SDS011;19511;42.682;23.332;2022-10-31T01:30:55;1999.90;;;999.90;;
33154;SDS011;19511;42.682;23.332;2022-10-31T01:33:24;1999.90;;;999.90;;
33154;SDS011;19511;42.682;23.332;2022-10-31T01:35:49;1999.90;;;999.90;;
33154;SDS011;19511;42.682;23.332;2022-10-31T01:38:15;1999.90;;;999.90;;
33154;SDS011;19511;42.682;23.332;2022-10-31T01:40:40;1999.90;;;999.90;;
33154;SDS011;19511;42.682;23.332;2022-10-31T01:43:09;1999.90;;;999.90;;
33154;SDS011;19511;42.682;23.332;2022-10-31T01:45:37;1999.90;;;999.90;;
33154;SDS011;19511;42.682;23.332;2022-10-31T01:48:03;1999.90;;;999.90;;
33154;SDS011;19511;42.682;23.332;2022-10-31T01:50:30;1999.90;;;999.90;;
33154;SDS011;19511;42.682;23.332;2022-10-31T01:52:59;1999.90;;;999.90;;
33154;SDS011;19511;42.682;23.332;2022-10-31T01:55:27;1999.90;;;999.90;;
33154;SDS011;19511;42.682;23.332;2022-10-31T01:57:58;1999.90;;;999.90;;
33154;SDS011;19511;42.682;23.332;2022-10-31T02:00:28;1999.90;;;999.90;;
33154;SDS011;19511;42.682;23.332;2022-10-31T02:02:54;1999.90;;;999.90;;
33154;SDS011;19511;42.682;23.332;2022-10-31T02:05:21;1999.90;;;999.90;;
33154;SDS011;19511;42.682;23.332;2022-10-31T02:10:22;1999.90;;;999.90;;
33154;SDS011;19511;42.682;23.332;2022-10-31T02:12:50;1999.90;;;999.90;;
33154;SDS011;19511;42.682;23.332;2022-10-31T02:15:18;1999.90;;;999.90;;
33154;SDS011;19511;42.682;23.332;2022-10-31T02:17:43;1999.90;;;999.90;;
33154;SDS011;19511;42.682;23.332;2022-10-31T02:29:06;1999.90;;;999.90;;
33154;SDS011;19511;42.682;23.332;2022-10-31T02:31:24;1999.90;;;999.90;;
33154;SDS011;19511;42.682;23.332;2022-10-31T02:33:55;1999.90;;;999.90;;
33154;SDS011;19511;42.682;23.332;2022-10-31T02:39:23;1999.90;;;999.90;;
33154;SDS011;19511;42.682;23.332;2022-10-31T02:44:27;1999.90;;;999.90;;
33154;SDS011;19511;42.682;23.332;2022-10-31T02:47:02;1999.90;;;999.90;;
33154;SDS011;19511;42.682;23.332;2022-10-31T02:49:32;1999.90;;;999.90;;
33154;SDS011;19511;42.682;23.332;2022-10-31T02:51:59;1999.90;;;999.90;;
33154;SDS011;19511;42.682;23.332;2022-10-31T02:54:25;1999.90;;;999.90;;
33154;SDS011;19511;42.682;23.332;2022-10-31T02:57:02;1999.90;;;999.90;;
33154;SDS011;19511;42.682;23.332;2022-10-31T02:59:32;1999.90;;;999.90;;
33154;SDS011;19511;42.682;23.332;2022-10-31T03:02:46;1999.90;;;999.90;;
33154;SDS011;19511;42.682;23.332;2022-10-31T03:15:32;1999.90;;;999.90;;
33154;SDS011;19511;42.682;23.332;2022-10-31T03:18:09;1999.90;;;999.90;;
33154;SDS011;19511;42.682;23.332;2022-10-31T03:20:45;1999.90;;;999.90;;
33154;SDS011;19511;42.682;23.332;2022-10-31T03:23:17;1999.90;;;999.90;;
33154;SDS011;19511;42.682;23.332;2022-10-31T03:25:45;1999.90;;;999.90;;
33154;SDS011;19511;42.682;23.332;2022-10-31T03:28:12;1999.90;;;999.90;;
33154;SDS011;19511;42.682;23.332;2022-10-31T03:30:42;1573.30;;;778.97;;
33154;SDS011;19511;42.682;23.332;2022-10-31T03:33:11;1999.90;;;999.90;;
33154;SDS011;19511;42.682;23.332;2022-10-31T03:35:41;1600.47;;;792.15;;
33154;SDS011;19511;42.682;23.332;2022-10-31T03:38:10;831.53;;;366.42;;
33154;SDS011;19511;42.682;23.332;2022-10-31T03:40:37;1156.40;;;606.15;;
33154;SDS011;19511;42.682;23.332;2022-10-31T03:43:07;1227.78;;;645.80;;
33154;SDS011;19511;42.682;23.332;2022-10-31T03:45:41;1235.82;;;706.45;;
33154;SDS011;19511;42.682;23.332;2022-10-31T03:48:10;1477.65;;;819.67;;
33154;SDS011;19511;42.682;23.332;2022-10-31T03:53:36;1222.55;;;682.30;;
33154;SDS011;19511;42.682;23.332;2022-10-31T03:59:15;1375.75;;;797.40;;
33154;SDS011;19511;42.682;23.332;2022-10-31T04:01:51;1309.90;;;718.05;;
33154;SDS011;19511;42.682;23.332;2022-10-31T04:04:21;1450.72;;;827.65;;
33154;SDS011;19511;42.682;23.332;2022-10-31T04:06:46;1564.03;;;998.13;;
33154;SDS011;19511;42.682;23.332;2022-10-31T04:09:15;1391.30;;;987.90;;
33154;SDS011;19511;42.682;23.332;2022-10-31T04:11:47;1284.40;;;957.28;;
33154;SDS011;19511;42.682;23.332;2022-10-31T04:14:18;1254.18;;;946.22;;
33154;SDS011;19511;42.682;23.332;2022-10-31T04:16:45;1152.63;;;940.65;;
33154;SDS011;19511;42.682;23.332;2022-10-31T04:19:11;1067.32;;;910.58;;
33154;SDS011;19511;42.682;23.332;2022-10-31T04:21:37;1026.90;;;905.35;;
33154;SDS011;19511;42.682;23.332;2022-10-31T04:24:03;1059.13;;;917.42;;
33154;SDS011;19511;42.682;23.332;2022-10-31T04:26:28;1125.50;;;940.95;;
33154;SDS011;19511;42.682;23.332;2022-10-31T04:28:54;1133.25;;;938.22;;
33154;SDS011;19511;42.682;23.332;2022-10-31T04:31:19;1090.38;;;955.78;;
33154;SDS011;19511;42.682;23.332;2022-10-31T04:33:45;1055.35;;;912.47;;
33154;SDS011;19511;42.682;23.332;2022-10-31T04:36:10;1044.45;;;883.10;;
33154;SDS011;19511;42.682;23.332;2022-10-31T04:38:36;993.08;;;889.33;;
33154;SDS011;19511;42.682;23.332;2022-10-31T04:41:01;988.90;;;877.90;;
33154;SDS011;19511;42.682;23.332;2022-10-31T04:43:26;928.60;;;832.90;;
33154;SDS011;19511;42.682;23.332;2022-10-31T04:45:52;964.78;;;865.63;;
33154;SDS011;19511;42.682;23.332;2022-10-31T04:48:17;885.67;;;798.00;;
33154;SDS011;19511;42.682;23.332;2022-10-31T04:50:43;818.05;;;740.78;;
33154;SDS011;19511;42.682;23.332;2022-10-31T04:53:08;788.83;;;714.65;;
33154;SDS011;19511;42.682;23.332;2022-10-31T04:55:35;750.30;;;683.33;;
33154;SDS011;19511;42.682;23.332;2022-10-31T04:58:01;765.45;;;694.60;;
33154;SDS011;19511;42.682;23.332;2022-10-31T05:00:27;858.08;;;778.22;;
33154;SDS011;19511;42.682;23.332;2022-10-31T05:02:54;730.35;;;665.90;;
33154;SDS011;19511;42.682;23.332;2022-10-31T05:05:26;747.67;;;679.65;;
33154;SDS011;19511;42.682;23.332;2022-10-31T05:07:53;763.22;;;695.22;;
33154;SDS011;19511;42.682;23.332;2022-10-31T05:10:21;805.42;;;728.20;;
33154;SDS011;19511;42.682;23.332;2022-10-31T05:12:48;708.58;;;644.15;;
33154;SDS011;19511;42.682;23.332;2022-10-31T05:15:15;797.97;;;727.92;;
33154;SDS011;19511;42.682;23.332;2022-10-31T05:17:41;774.15;;;706.70;;
33154;SDS011;19511;42.682;23.332;2022-10-31T05:20:07;700.45;;;638.47;;
33154;SDS011;19511;42.682;23.332;2022-10-31T05:22:33;721.95;;;657.70;;
33154;SDS011;19511;42.682;23.332;2022-10-31T05:24:58;729.85;;;665.42;;
33154;SDS011;19511;42.682;23.332;2022-10-31T05:27:23;767.60;;;698.47;;
33154;SDS011;19511;42.682;23.332;2022-10-31T05:29:49;744.85;;;677.78;;
33154;SDS011;19511;42.682;23.332;2022-10-31T05:32:14;630.42;;;578.15;;
33154;SDS011;19511;42.682;23.332;2022-10-31T05:34:40;666.22;;;608.17;;
33154;SDS011;19511;42.682;23.332;2022-10-31T05:37:05;474.25;;;437.75;;
33154;SDS011;19511;42.682;23.332;2022-10-31T05:39:31;475.33;;;437.40;;
33154;SDS011;19511;42.682;23.332;2022-10-31T05:41:56;399.67;;;369.13;;
33154;SDS011;19511;42.682;23.332;2022-10-31T05:44:22;427.15;;;392.10;;
33154;SDS011;19511;42.682;23.332;2022-10-31T05:46:47;340.52;;;314.20;;
33154;SDS011;19511;42.682;23.332;2022-10-31T05:49:13;358.90;;;329.83;;
33154;SDS011;19511;42.682;23.332;2022-10-31T05:51:38;300.05;;;277.25;;
33154;SDS011;19511;42.682;23.332;2022-10-31T05:54:03;325.70;;;298.58;;
33154;SDS011;19511;42.682;23.332;2022-10-31T05:56:29;349.95;;;323.27;;
33154;SDS011;19511;42.682;23.332;2022-10-31T05:58:54;400.23;;;369.17;;
33154;SDS011;19511;42.682;23.332;2022-10-31T06:01:20;538.22;;;494.15;;
33154;SDS011;19511;42.682;23.332;2022-10-31T06:03:45;538.75;;;494.70;;
33154;SDS011;19511;42.682;23.332;2022-10-31T06:06:11;820.05;;;746.03;;
33154;SDS011;19511;42.682;23.332;2022-10-31T06:08:36;828.40;;;754.60;;
33154;SDS011;19511;42.682;23.332;2022-10-31T06:11:01;760.05;;;690.60;;
33154;SDS011;19511;42.682;23.332;2022-10-31T06:13:27;666.85;;;609.33;;
33154;SDS011;19511;42.682;23.332;2022-10-31T06:15:52;592.85;;;543.92;;
